ベロオリゾンテ の空港の天気 - METARとTAF

タンクレド・ネヴェス国際空港 ( SBCF / CNF ) - ブラジル ミナスジェライス州ベロオリゾンテ
飛行場実況気象(Metar)
観測時間09/22 20:00 BRT (09/22 23:00 UTC)
風向・風速東 8m/s
視程10km以上
天気現象
なし
気温22℃
湿度46%
気圧1018hPa
METARSBCF 222300Z 10015KT CAVOK 22/10 Q1018
過去の天気等 Google飛行場航空写真 Wunderground天気予報

過去48時間のMETAR

飛行場予報(TAF)
発表時間: 9/22 18:20 BRT (9/22 21:20 UTC)
予報対象時間: 22日21時 BRT ~ 23日21時 BRT
風向・風速南東 5m/s
視程8000m
なし
23日9時 BRT ~ 23日11時 BRT に徐々に
風向・風速東 5m/s
23日12時 BRT ~ 23日14時 BRT に徐々に
全天の4割程度の雲 雲底高度 1070m
23日17時 BRT ~ 23日19時 BRT に徐々に
風向・風速南東 3m/s
視程10km以上
なし
TAF SBCF 222120Z 2300/2324 13010KT 8000 NSC TN19/2309Z TX29/2318Z
BECMG 2312/2314 10010KT
BECMG 2315/2317 SCT035
BECMG 2320/2322 13006KT CAVOK RMK PHG